sensor_id;sensor_type;location;lat;lon;timestamp;pressure;altitude;pressure_sealevel;temperature;humidity
16120;BME280;12670;53.502;10.252;2023-04-12T00:02:21;100671.75;;;6.52;100.00
16120;BME280;12670;53.502;10.252;2023-04-12T00:05:23;100671.09;;;6.42;100.00
16120;BME280;12670;53.502;10.252;2023-04-12T00:08:27;100662.38;;;6.40;100.00
16120;BME280;12670;53.502;10.252;2023-04-12T00:11:35;100658.84;;;6.41;100.00
16120;BME280;12670;53.502;10.252;2023-04-12T00:14:38;100665.63;;;6.50;100.00
16120;BME280;12670;53.502;10.252;2023-04-12T00:17:40;100662.06;;;6.51;100.00
16120;BME280;12670;53.502;10.252;2023-04-12T00:20:43;100655.28;;;6.42;100.00
16120;BME280;12670;53.502;10.252;2023-04-12T00:23:46;100650.25;;;6.33;100.00
16120;BME280;12670;53.502;10.252;2023-04-12T00:26:51;100639.53;;;6.40;100.00
16120;BME280;12670;53.502;10.252;2023-04-12T00:29:53;100637.75;;;6.41;100.00
16120;BME280;12670;53.502;10.252;2023-04-12T00:32:57;100626.03;;;6.19;100.00
16120;BME280;12670;53.502;10.252;2023-04-12T00:36:00;100631.00;;;6.31;100.00
16120;BME280;12670;53.502;10.252;2023-04-12T00:39:02;100625.00;;;6.24;100.00
16120;BME280;12670;53.502;10.252;2023-04-12T00:42:07;100628.25;;;6.35;100.00
16120;BME280;12670;53.502;10.252;2023-04-12T00:45:10;100619.44;;;6.36;100.00
16120;BME280;12670;53.502;10.252;2023-04-12T00:48:13;100617.19;;;6.21;100.00
16120;BME280;12670;53.502;10.252;2023-04-12T00:51:16;100624.22;;;6.21;100.00
16120;BME280;12670;53.502;10.252;2023-04-12T00:54:22;100619.81;;;6.21;100.00
16120;BME280;12670;53.502;10.252;2023-04-12T00:57:28;100613.63;;;6.24;100.00
16120;BME280;12670;53.502;10.252;2023-04-12T01:00:34;100611.84;;;6.24;100.00
16120;BME280;12670;53.502;10.252;2023-04-12T01:03:36;100605.03;;;6.15;100.00
16120;BME280;12670;53.502;10.252;2023-04-12T01:07:02;100594.44;;;6.19;100.00
16120;BME280;12670;53.502;10.252;2023-04-12T01:10:13;100594.19;;;6.28;100.00
16120;BME280;12670;53.502;10.252;2023-04-12T01:13:27;100582.94;;;6.21;100.00
16120;BME280;12670;53.502;10.252;2023-04-12T01:16:34;100578.28;;;6.31;100.00
16120;BME280;12670;53.502;10.252;2023-04-12T01:19:50;100569.69;;;6.24;100.00
16120;BME280;12670;53.502;10.252;2023-04-12T01:26:40;100566.38;;;6.18;100.00
16120;BME280;12670;53.502;10.252;2023-04-12T01:29:47;100552.22;;;6.22;100.00
16120;BME280;12670;53.502;10.252;2023-04-12T01:32:52;100552.94;;;6.27;100.00
16120;BME280;12670;53.502;10.252;2023-04-12T01:35:58;100546.94;;;6.22;100.00
16120;BME280;12670;53.502;10.252;2023-04-12T01:39:02;100542.53;;;6.22;100.00
16120;BME280;12670;53.502;10.252;2023-04-12T01:42:06;100550.28;;;6.27;100.00
16120;BME280;12670;53.502;10.252;2023-04-12T01:45:10;100540.50;;;6.32;100.00
16120;BME280;12670;53.502;10.252;2023-04-12T01:48:13;100542.97;;;6.38;100.00
16120;BME280;12670;53.502;10.252;2023-04-12T01:51:22;100534.06;;;6.42;100.00
16120;BME280;12670;53.502;10.252;2023-04-12T01:54:33;100533.94;;;6.47;100.00
16120;BME280;12670;53.502;10.252;2023-04-12T01:57:39;100535.56;;;6.52;100.00
16120;BME280;12670;53.502;10.252;2023-04-12T02:00:44;100522.38;;;6.51;100.00
16120;BME280;12670;53.502;10.252;2023-04-12T02:03:48;100521.81;;;6.41;100.00
16120;BME280;12670;53.502;10.252;2023-04-12T02:06:52;100519.34;;;6.35;100.00
16120;BME280;12670;53.502;10.252;2023-04-12T02:09:55;100503.38;;;6.41;100.00
16120;BME280;12670;53.502;10.252;2023-04-12T02:12:58;100501.84;;;6.32;100.00
16120;BME280;12670;53.502;10.252;2023-04-12T02:16:04;100500.97;;;6.32;100.00
16120;BME280;12670;53.502;10.252;2023-04-12T02:19:08;100490.63;;;6.26;100.00
16120;BME280;12670;53.502;10.252;2023-04-12T02:22:11;100485.09;;;6.35;100.00
16120;BME280;12670;53.502;10.252;2023-04-12T02:25:14;100491.91;;;6.42;100.00
16120;BME280;12670;53.502;10.252;2023-04-12T02:28:18;100483.31;;;6.35;100.00
16120;BME280;12670;53.502;10.252;2023-04-12T02:31:22;100476.72;;;6.52;100.00
16120;BME280;12670;53.502;10.252;2023-04-12T02:34:25;100470.41;;;6.56;100.00
16120;BME280;12670;53.502;10.252;2023-04-12T02:37:31;100468.81;;;6.50;100.00
16120;BME280;12670;53.502;10.252;2023-04-12T02:40:37;100463.19;;;6.33;100.00
16120;BME280;12670;53.502;10.252;2023-04-12T02:43:41;100450.31;;;6.53;100.00
16120;BME280;12670;53.502;10.252;2023-04-12T02:46:45;100443.50;;;6.45;100.00
16120;BME280;12670;53.502;10.252;2023-04-12T02:49:47;100436.41;;;6.48;100.00
16120;BME280;12670;53.502;10.252;2023-04-12T02:52:50;100430.75;;;6.60;100.00
16120;BME280;12670;53.502;10.252;2023-04-12T02:55:53;100424.47;;;6.64;100.00
16120;BME280;12670;53.502;10.252;2023-04-12T02:58:57;100423.09;;;6.23;100.00
16120;BME280;12670;53.502;10.252;2023-04-12T03:02:01;100407.13;;;6.57;100.00
16120;BME280;12670;53.502;10.252;2023-04-12T03:05:05;100404.72;;;6.50;100.00
16120;BME280;12670;53.502;10.252;2023-04-12T03:08:08;100399.75;;;6.39;100.00
16120;BME280;12670;53.502;10.252;2023-04-12T03:11:11;100384.41;;;6.53;100.00
16120;BME280;12670;53.502;10.252;2023-04-12T03:14:13;100376.41;;;6.56;100.00
16120;BME280;12670;53.502;10.252;2023-04-12T03:17:17;100363.53;;;6.74;100.00
16120;BME280;12670;53.502;10.252;2023-04-12T03:20:20;100354.94;;;6.68;100.00
16120;BME280;12670;53.502;10.252;2023-04-12T03:23:24;100353.53;;;6.85;100.00
16120;BME280;12670;53.502;10.252;2023-04-12T03:26:27;100347.66;;;6.77;100.00
16120;BME280;12670;53.502;10.252;2023-04-12T03:29:30;100346.66;;;6.81;99.70
16120;BME280;12670;53.502;10.252;2023-04-12T03:32:34;100342.91;;;7.13;100.00
16120;BME280;12670;53.502;10.252;2023-04-12T03:35:37;100334.34;;;7.06;98.78
16120;BME280;12670;53.502;10.252;2023-04-12T03:38:40;100327.56;;;6.45;97.90
16120;BME280;12670;53.502;10.252;2023-04-12T03:41:43;100331.50;;;6.59;99.57
16120;BME280;12670;53.502;10.252;2023-04-12T03:44:45;100323.47;;;6.62;98.54
16120;BME280;12670;53.502;10.252;2023-04-12T03:47:50;100316.56;;;6.86;100.00
16120;BME280;12670;53.502;10.252;2023-04-12T03:50:53;100314.25;;;7.04;99.51
16120;BME280;12670;53.502;10.252;2023-04-12T03:53:55;100310.13;;;6.95;97.83
16120;BME280;12670;53.502;10.252;2023-04-12T03:56:58;100303.94;;;6.70;98.77
16120;BME280;12670;53.502;10.252;2023-04-12T04:00:02;100297.13;;;6.89;98.39
16120;BME280;12670;53.502;10.252;2023-04-12T04:03:07;100287.88;;;6.77;97.10
16120;BME280;12670;53.502;10.252;2023-04-12T04:06:11;100283.56;;;6.75;99.10
16120;BME280;12670;53.502;10.252;2023-04-12T04:09:13;100273.88;;;6.75;97.28
16120;BME280;12670;53.502;10.252;2023-04-12T04:12:17;100262.28;;;6.81;96.85
16120;BME280;12670;53.502;10.252;2023-04-12T04:15:19;100258.28;;;6.94;96.94
16120;BME280;12670;53.502;10.252;2023-04-12T04:18:23;100259.00;;;6.99;95.47
16120;BME280;12670;53.502;10.252;2023-04-12T04:21:26;100254.75;;;6.95;96.24
16120;BME280;12670;53.502;10.252;2023-04-12T04:24:30;100249.25;;;7.01;96.31
16120;BME280;12670;53.502;10.252;2023-04-12T04:27:34;100235.69;;;6.60;94.92
16120;BME280;12670;53.502;10.252;2023-04-12T04:30:39;100233.94;;;6.86;96.51
16120;BME280;12670;53.502;10.252;2023-04-12T04:33:43;100228.88;;;6.80;95.77
16120;BME280;12670;53.502;10.252;2023-04-12T04:36:45;100221.25;;;6.97;95.77
16120;BME280;12670;53.502;10.252;2023-04-12T04:39:48;100220.03;;;6.82;94.83
16120;BME280;12670;53.502;10.252;2023-04-12T04:42:51;100208.00;;;6.74;93.64
16120;BME280;12670;53.502;10.252;2023-04-12T04:45:55;100207.03;;;6.51;94.85
16120;BME280;12670;53.502;10.252;2023-04-12T04:49:00;100201.84;;;6.48;96.45
16120;BME280;12670;53.502;10.252;2023-04-12T04:52:03;100192.94;;;6.52;92.83
16120;BME280;12670;53.502;10.252;2023-04-12T04:55:08;100178.75;;;6.81;94.88
16120;BME280;12670;53.502;10.252;2023-04-12T04:58:12;100170.16;;;6.76;94.01
16120;BME280;12670;53.502;10.252;2023-04-12T05:01:15;100173.44;;;6.83;94.43
16120;BME280;12670;53.502;10.252;2023-04-12T05:04:19;100175.56;;;6.97;92.75
16120;BME280;12670;53.502;10.252;2023-04-12T05:07:22;100179.47;;;6.86;93.01
16120;BME280;12670;53.502;10.252;2023-04-12T05:10:26;100175.53;;;6.98;92.98
16120;BME280;12670;53.502;10.252;2023-04-12T05:13:29;100176.66;;;6.66;91.80
16120;BME280;12670;53.502;10.252;2023-04-12T05:16:31;100165.50;;;6.83;92.16
16120;BME280;12670;53.502;10.252;2023-04-12T05:19:36;100173.13;;;6.92;93.46
16120;BME280;12670;53.502;10.252;2023-04-12T05:22:38;100169.13;;;6.80;93.00
16120;BME280;12670;53.502;10.252;2023-04-12T05:25:44;100167.03;;;6.65;93.21
16120;BME280;12670;53.502;10.252;2023-04-12T05:28:48;100165.44;;;6.84;93.13
16120;BME280;12670;53.502;10.252;2023-04-12T05:31:51;100155.94;;;6.80;93.32
16120;BME280;12670;53.502;10.252;2023-04-12T05:34:55;100150.47;;;6.86;93.23
16120;BME280;12670;53.502;10.252;2023-04-12T05:37:58;100151.59;;;7.03;91.58
16120;BME280;12670;53.502;10.252;2023-04-12T05:41:00;100140.09;;;7.05;92.17
16120;BME280;12670;53.502;10.252;2023-04-12T05:44:05;100139.75;;;7.14;92.13
16120;BME280;12670;53.502;10.252;2023-04-12T05:47:07;100134.22;;;7.20;91.74
16120;BME280;12670;53.502;10.252;2023-04-12T05:50:11;100132.91;;;7.32;90.99
16120;BME280;12670;53.502;10.252;2023-04-12T05:53:14;100131.19;;;7.31;90.05
16120;BME280;12670;53.502;10.252;2023-04-12T05:56:16;100127.84;;;7.04;88.88
16120;BME280;12670;53.502;10.252;2023-04-12T05:59:19;100125.06;;;7.31;91.70
16120;BME280;12670;53.502;10.252;2023-04-12T06:02:22;100128.16;;;7.42;91.37
16120;BME280;12670;53.502;10.252;2023-04-12T06:05:28;100125.47;;;7.65;91.13
16120;BME280;12670;53.502;10.252;2023-04-12T06:08:30;100120.09;;;7.68;87.12
16120;BME280;12670;53.502;10.252;2023-04-12T06:11:36;100110.81;;;7.58;86.58
16120;BME280;12670;53.502;10.252;2023-04-12T06:14:39;100113.06;;;7.67;86.00
16120;BME280;12670;53.502;10.252;2023-04-12T06:17:42;100092.31;;;7.80;86.81
16120;BME280;12670;53.502;10.252;2023-04-12T06:20:46;100085.75;;;7.68;83.28
16120;BME280;12670;53.502;10.252;2023-04-12T06:23:49;100084.69;;;7.72;82.26
16120;BME280;12670;53.502;10.252;2023-04-12T06:26:52;100075.31;;;7.65;81.53
16120;BME280;12670;53.502;10.252;2023-04-12T06:29:55;100070.88;;;7.88;82.40
16120;BME280;12670;53.502;10.252;2023-04-12T06:32:58;100074.31;;;7.90;80.46
16120;BME280;12670;53.502;10.252;2023-04-12T06:36:02;100062.06;;;8.29;82.12
16120;BME280;12670;53.502;10.252;2023-04-12T06:39:05;100054.75;;;8.36;77.77
16120;BME280;12670;53.502;10.252;2023-04-12T06:42:08;100054.94;;;8.52;80.52
16120;BME280;12670;53.502;10.252;2023-04-12T06:45:14;100033.59;;;8.57;79.01
16120;BME280;12670;53.502;10.252;2023-04-12T06:48:17;100044.13;;;8.96;79.59
16120;BME280;12670;53.502;10.252;2023-04-12T06:51:21;100038.63;;;9.00;75.62
16120;BME280;12670;53.502;10.252;2023-04-12T06:54:24;100035.97;;;9.19;78.65
16120;BME280;12670;53.502;10.252;2023-04-12T06:57:27;100047.41;;;9.20;75.53
16120;BME280;12670;53.502;10.252;2023-04-12T07:00:30;100033.28;;;9.21;73.04
16120;BME280;12670;53.502;10.252;2023-04-12T07:03:33;100035.75;;;9.43;73.38
16120;BME280;12670;53.502;10.252;2023-04-12T07:06:37;100036.25;;;9.51;75.83
16120;BME280;12670;53.502;10.252;2023-04-12T07:09:40;100029.38;;;9.47;74.40
16120;BME280;12670;53.502;10.252;2023-04-12T07:12:43;100024.81;;;9.50;70.86
16120;BME280;12670;53.502;10.252;2023-04-12T07:15:47;100023.56;;;9.21;72.00
16120;BME280;12670;53.502;10.252;2023-04-12T07:18:50;100023.56;;;9.57;74.60
16120;BME280;12670;53.502;10.252;2023-04-12T07:21:54;100012.91;;;9.76;74.67
16120;BME280;12670;53.502;10.252;2023-04-12T07:24:57;100005.91;;;9.93;75.46
16120;BME280;12670;53.502;10.252;2023-04-12T07:28:00;99998.81;;;10.10;74.47
16120;BME280;12670;53.502;10.252;2023-04-12T07:31:04;99994.66;;;10.22;73.58
16120;BME280;12670;53.502;10.252;2023-04-12T07:34:07;99989.59;;;10.18;72.20
16120;BME280;12670;53.502;10.252;2023-04-12T07:37:12;99984.22;;;10.36;71.87
16120;BME280;12670;53.502;10.252;2023-04-12T07:40:14;99983.78;;;10.61;75.96
16120;BME280;12670;53.502;10.252;2023-04-12T07:43:17;99989.75;;;10.65;71.45
16120;BME280;12670;53.502;10.252;2023-04-12T07:46:20;99980.03;;;10.81;71.33
16120;BME280;12670;53.502;10.252;2023-04-12T07:49:23;99984.31;;;10.84;71.50
16120;BME280;12670;53.502;10.252;2023-04-12T07:52:27;99976.34;;;10.68;68.17
16120;BME280;12670;53.502;10.252;2023-04-12T07:55:30;99966.16;;;10.76;70.56
16120;BME280;12670;53.502;10.252;2023-04-12T07:58:33;99961.69;;;10.61;69.83
16120;BME280;12670;53.502;10.252;2023-04-12T08:01:35;99959.25;;;10.74;71.26
16120;BME280;12670;53.502;10.252;2023-04-12T08:04:38;99954.59;;;10.77;69.43
16120;BME280;12670;53.502;10.252;2023-04-12T08:07:45;99953.59;;;10.80;70.27
16120;BME280;12670;53.502;10.252;2023-04-12T08:10:49;99955.63;;;10.90;71.93
16120;BME280;12670;53.502;10.252;2023-04-12T08:13:52;99938.94;;;10.73;67.10
16120;BME280;12670;53.502;10.252;2023-04-12T08:16:54;99940.13;;;10.67;66.87
16120;BME280;12670;53.502;10.252;2023-04-12T08:19:57;99932.78;;;10.72;66.58
16120;BME280;12670;53.502;10.252;2023-04-12T08:23:02;99936.03;;;10.77;67.39
16120;BME280;12670;53.502;10.252;2023-04-12T08:26:05;99920.78;;;10.65;65.08
16120;BME280;12670;53.502;10.252;2023-04-12T08:29:07;99917.53;;;10.60;67.55
16120;BME280;12670;53.502;10.252;2023-04-12T08:32:10;99907.63;;;10.79;66.81
16120;BME280;12670;53.502;10.252;2023-04-12T08:35:13;99900.63;;;10.62;66.62
16120;BME280;12670;53.502;10.252;2023-04-12T08:38:18;99904.28;;;10.60;69.04
16120;BME280;12670;53.502;10.252;2023-04-12T08:41:32;99906.75;;;10.79;70.25
16120;BME280;12670;53.502;10.252;2023-04-12T08:44:38;99888.81;;;10.68;68.12
16120;BME280;12670;53.502;10.252;2023-04-12T08:47:42;99885.56;;;10.63;67.28
16120;BME280;12670;53.502;10.252;2023-04-12T08:50:45;99878.19;;;10.68;69.25
16120;BME280;12670;53.502;10.252;2023-04-12T08:53:52;99876.66;;;10.64;65.89
16120;BME280;12670;53.502;10.252;2023-04-12T08:56:55;99867.75;;;10.65;66.13
16120;BME280;12670;53.502;10.252;2023-04-12T09:00:00;99857.63;;;10.72;67.15
16120;BME280;12670;53.502;10.252;2023-04-12T09:03:04;99844.78;;;10.95;70.70
16120;BME280;12670;53.502;10.252;2023-04-12T09:06:07;99840.25;;;10.98;67.11
16120;BME280;12670;53.502;10.252;2023-04-12T09:09:12;99821.84;;;10.94;67.05
16120;BME280;12670;53.502;10.252;2023-04-12T09:12:16;99812.34;;;10.90;65.10
16120;BME280;12670;53.502;10.252;2023-04-12T09:15:20;99814.50;;;10.84;65.36
16120;BME280;12670;53.502;10.252;2023-04-12T09:18:23;99800.50;;;10.96;64.64
16120;BME280;12670;53.502;10.252;2023-04-12T09:21:27;99790.28;;;11.20;66.90
16120;BME280;12670;53.502;10.252;2023-04-12T09:24:44;99787.25;;;11.26;66.07
16120;BME280;12670;53.502;10.252;2023-04-12T09:27:49;99776.53;;;11.28;64.21
16120;BME280;12670;53.502;10.252;2023-04-12T09:30:52;99767.75;;;11.56;66.92
16120;BME280;12670;53.502;10.252;2023-04-12T09:34:05;99765.31;;;11.81;68.61
16120;BME280;12670;53.502;10.252;2023-04-12T09:37:11;99770.22;;;12.01;66.50
16120;BME280;12670;53.502;10.252;2023-04-12T09:40:22;99756.53;;;12.08;66.40
16120;BME280;12670;53.502;10.252;2023-04-12T09:43:35;99747.25;;;12.15;64.52
16120;BME280;12670;53.502;10.252;2023-04-12T09:46:49;99735.19;;;12.36;67.76
16120;BME280;12670;53.502;10.252;2023-04-12T09:49:52;99725.66;;;12.46;61.51
16120;BME280;12670;53.502;10.252;2023-04-12T09:52:55;99729.69;;;12.39;61.79
16120;BME280;12670;53.502;10.252;2023-04-12T09:56:00;99728.56;;;12.29;60.57
16120;BME280;12670;53.502;10.252;2023-04-12T09:59:05;99731.44;;;12.26;61.92
16120;BME280;12670;53.502;10.252;2023-04-12T10:02:13;99716.59;;;12.09;62.74
16120;BME280;12670;53.502;10.252;2023-04-12T10:05:18;99706.56;;;12.27;64.76
16120;BME280;12670;53.502;10.252;2023-04-12T10:08:22;99697.81;;;12.25;64.50
16120;BME280;12670;53.502;10.252;2023-04-12T10:11:27;99702.22;;;12.26;62.98
16120;BME280;12670;53.502;10.252;2023-04-12T10:14:30;99698.19;;;12.33;65.88
16120;BME280;12670;53.502;10.252;2023-04-12T10:17:33;99698.22;;;12.19;66.15
16120;BME280;12670;53.502;10.252;2023-04-12T10:20:38;99687.50;;;12.20;65.76
16120;BME280;12670;53.502;10.252;2023-04-12T10:23:42;99685.31;;;12.13;62.26
16120;BME280;12670;53.502;10.252;2023-04-12T10:26:47;99683.84;;;12.09;66.52
16120;BME280;12670;53.502;10.252;2023-04-12T10:29:50;99676.53;;;12.25;66.34
16120;BME280;12670;53.502;10.252;2023-04-12T10:33:12;99666.13;;;12.49;64.42
16120;BME280;12670;53.502;10.252;2023-04-12T10:36:17;99667.63;;;12.26;64.03
16120;BME280;12670;53.502;10.252;2023-04-12T10:39:35;99655.38;;;12.23;66.10
16120;BME280;12670;53.502;10.252;2023-04-12T10:42:40;99660.06;;;12.20;65.24
16120;BME280;12670;53.502;10.252;2023-04-12T10:45:43;99656.00;;;12.14;64.89
16120;BME280;12670;53.502;10.252;2023-04-12T10:48:50;99645.38;;;12.14;63.43
16120;BME280;12670;53.502;10.252;2023-04-12T10:52:10;99638.97;;;12.17;64.15
16120;BME280;12670;53.502;10.252;2023-04-12T10:55:32;99656.13;;;11.98;63.38
16120;BME280;12670;53.502;10.252;2023-04-12T10:58:56;99661.84;;;11.92;63.38
16120;BME280;12670;53.502;10.252;2023-04-12T11:02:17;99652.75;;;11.82;67.29
16120;BME280;12670;53.502;10.252;2023-04-12T11:05:20;99657.28;;;11.80;67.00
16120;BME280;12670;53.502;10.252;2023-04-12T11:08:24;99664.56;;;11.50;71.61
16120;BME280;12670;53.502;10.252;2023-04-12T11:11:33;99653.44;;;11.43;73.43
16120;BME280;12670;53.502;10.252;2023-04-12T11:14:42;99657.53;;;11.34;77.71
16120;BME280;12670;53.502;10.252;2023-04-12T11:17:52;99672.59;;;11.05;77.80
16120;BME280;12670;53.502;10.252;2023-04-12T11:20:55;99661.09;;;10.46;85.87
16120;BME280;12670;53.502;10.252;2023-04-12T11:23:58;99665.53;;;10.46;89.28
16120;BME280;12670;53.502;10.252;2023-04-12T11:27:02;99661.59;;;10.53;92.57
16120;BME280;12670;53.502;10.252;2023-04-12T11:30:08;99659.47;;;10.74;95.44
16120;BME280;12670;53.502;10.252;2023-04-12T11:33:11;99663.78;;;10.60;96.38
16120;BME280;12670;53.502;10.252;2023-04-12T11:36:14;99660.97;;;10.78;96.93
16120;BME280;12670;53.502;10.252;2023-04-12T11:39:17;99663.28;;;10.54;99.68
16120;BME280;12670;53.502;10.252;2023-04-12T11:42:23;99654.97;;;10.60;99.86
16120;BME280;12670;53.502;10.252;2023-04-12T11:45:27;99654.38;;;10.55;100.00
16120;BME280;12670;53.502;10.252;2023-04-12T11:48:32;99659.84;;;10.67;100.00
16120;BME280;12670;53.502;10.252;2023-04-12T11:51:35;99658.41;;;10.76;100.00
16120;BME280;12670;53.502;10.252;2023-04-12T11:54:41;99653.41;;;10.41;100.00
16120;BME280;12670;53.502;10.252;2023-04-12T11:57:49;99657.44;;;10.63;100.00
16120;BME280;12670;53.502;10.252;2023-04-12T12:00:56;99661.91;;;10.62;100.00
16120;BME280;12670;53.502;10.252;2023-04-12T12:04:00;99657.00;;;10.40;100.00
16120;BME280;12670;53.502;10.252;2023-04-12T12:07:05;99646.88;;;10.47;100.00
16120;BME280;12670;53.502;10.252;2023-04-12T12:10:09;99647.00;;;10.30;100.00
16120;BME280;12670;53.502;10.252;2023-04-12T12:13:15;99641.63;;;10.31;100.00
16120;BME280;12670;53.502;10.252;2023-04-12T12:16:22;99644.19;;;10.33;100.00
16120;BME280;12670;53.502;10.252;2023-04-12T12:19:27;99648.13;;;10.10;100.00
16120;BME280;12670;53.502;10.252;2023-04-12T12:22:30;99649.00;;;10.10;100.00
16120;BME280;12670;53.502;10.252;2023-04-12T12:25:33;99643.69;;;9.95;100.00
16120;BME280;12670;53.502;10.252;2023-04-12T12:28:36;99639.47;;;10.22;100.00
16120;BME280;12670;53.502;10.252;2023-04-12T12:31:44;99629.81;;;10.21;100.00
16120;BME280;12670;53.502;10.252;2023-04-12T12:34:52;99633.75;;;10.14;100.00
16120;BME280;12670;53.502;10.252;2023-04-12T12:37:55;99631.41;;;9.94;100.00
16120;BME280;12670;53.502;10.252;2023-04-12T12:41:13;99628.19;;;10.19;100.00
16120;BME280;12670;53.502;10.252;2023-04-12T12:44:15;99624.53;;;10.21;100.00
16120;BME280;12670;53.502;10.252;2023-04-12T12:47:19;99620.25;;;10.19;100.00
16120;BME280;12670;53.502;10.252;2023-04-12T12:50:24;99618.03;;;10.11;100.00
16120;BME280;12670;53.502;10.252;2023-04-12T12:53:27;99616.13;;;10.13;100.00
16120;BME280;12670;53.502;10.252;2023-04-12T12:56:29;99600.00;;;10.02;100.00
16120;BME280;12670;53.502;10.252;2023-04-12T12:59:32;99610.09;;;10.27;100.00
16120;BME280;12670;53.502;10.252;2023-04-12T13:02:36;99594.69;;;10.18;100.00
16120;BME280;12670;53.502;10.252;2023-04-12T13:05:39;99590.41;;;9.85;100.00
16120;BME280;12670;53.502;10.252;2023-04-12T13:08:42;99591.41;;;9.98;100.00
16120;BME280;12670;53.502;10.252;2023-04-12T13:11:45;99585.53;;;9.77;100.00
16120;BME280;12670;53.502;10.252;2023-04-12T13:14:47;99577.66;;;10.22;100.00
16120;BME280;12670;53.502;10.252;2023-04-12T13:17:52;99570.91;;;10.32;100.00
16120;BME280;12670;53.502;10.252;2023-04-12T13:20:55;99564.34;;;10.07;100.00
16120;BME280;12670;53.502;10.252;2023-04-12T13:23:57;99564.50;;;10.20;100.00
16120;BME280;12670;53.502;10.252;2023-04-12T13:27:00;99552.25;;;10.03;100.00
16120;BME280;12670;53.502;10.252;2023-04-12T13:30:04;99549.28;;;10.24;100.00
16120;BME280;12670;53.502;10.252;2023-04-12T13:33:08;99549.53;;;10.19;100.00
16120;BME280;12670;53.502;10.252;2023-04-12T13:36:16;99547.44;;;10.54;100.00
16120;BME280;12670;53.502;10.252;2023-04-12T13:39:19;99538.53;;;10.55;100.00
16120;BME280;12670;53.502;10.252;2023-04-12T13:42:22;99525.50;;;10.52;100.00
16120;BME280;12670;53.502;10.252;2023-04-12T13:45:25;99518.97;;;10.44;100.00
16120;BME280;12670;53.502;10.252;2023-04-12T13:48:30;99530.53;;;10.57;100.00
16120;BME280;12670;53.502;10.252;2023-04-12T13:51:32;99527.69;;;10.74;100.00
16120;BME280;12670;53.502;10.252;2023-04-12T13:54:35;99524.09;;;10.75;100.00
16120;BME280;12670;53.502;10.252;2023-04-12T13:57:38;99519.72;;;10.60;100.00
16120;BME280;12670;53.502;10.252;2023-04-12T14:00:40;99510.91;;;10.45;100.00
16120;BME280;12670;53.502;10.252;2023-04-12T14:03:44;99501.72;;;10.65;100.00
16120;BME280;12670;53.502;10.252;2023-04-12T14:06:48;99518.38;;;10.53;100.00
16120;BME280;12670;53.502;10.252;2023-04-12T14:09:51;99510.97;;;10.29;100.00
16120;BME280;12670;53.502;10.252;2023-04-12T14:12:55;99506.25;;;10.49;100.00
16120;BME280;12670;53.502;10.252;2023-04-12T14:15:58;99503.59;;;10.49;100.00
16120;BME280;12670;53.502;10.252;2023-04-12T14:19:02;99500.09;;;10.48;100.00
16120;BME280;12670;53.502;10.252;2023-04-12T14:22:05;99514.59;;;10.12;100.00
16120;BME280;12670;53.502;10.252;2023-04-12T14:25:09;99503.13;;;10.28;100.00
16120;BME280;12670;53.502;10.252;2023-04-12T14:28:12;99493.38;;;10.12;100.00
16120;BME280;12670;53.502;10.252;2023-04-12T14:31:17;99494.44;;;10.10;100.00
16120;BME280;12670;53.502;10.252;2023-04-12T14:34:21;99503.72;;;10.17;100.00
16120;BME280;12670;53.502;10.252;2023-04-12T14:37:23;99494.22;;;10.29;100.00
16120;BME280;12670;53.502;10.252;2023-04-12T14:40:26;99489.03;;;10.41;100.00
16120;BME280;12670;53.502;10.252;2023-04-12T14:43:29;99486.28;;;10.13;100.00
16120;BME280;12670;53.502;10.252;2023-04-12T14:46:31;99487.25;;;10.12;100.00
16120;BME280;12670;53.502;10.252;2023-04-12T14:49:35;99490.53;;;10.01;100.00
16120;BME280;12670;53.502;10.252;2023-04-12T14:52:38;99493.38;;;10.28;100.00
16120;BME280;12670;53.502;10.252;2023-04-12T14:55:43;99481.47;;;10.05;100.00
16120;BME280;12670;53.502;10.252;2023-04-12T14:58:47;99485.16;;;10.17;100.00
16120;BME280;12670;53.502;10.252;2023-04-12T15:01:49;99478.81;;;10.20;100.00
16120;BME280;12670;53.502;10.252;2023-04-12T15:04:54;99477.97;;;10.05;100.00
16120;BME280;12670;53.502;10.252;2023-04-12T15:07:58;99473.63;;;10.18;100.00
16120;BME280;12670;53.502;10.252;2023-04-12T15:11:00;99471.34;;;10.12;100.00
16120;BME280;12670;53.502;10.252;2023-04-12T15:14:03;99471.16;;;10.15;100.00
16120;BME280;12670;53.502;10.252;2023-04-12T15:17:07;99467.00;;;10.11;100.00
16120;BME280;12670;53.502;10.252;2023-04-12T15:20:12;99475.69;;;9.99;100.00
16120;BME280;12670;53.502;10.252;2023-04-12T15:23:16;99477.81;;;10.22;100.00
16120;BME280;12670;53.502;10.252;2023-04-12T15:26:19;99474.44;;;10.34;100.00
16120;BME280;12670;53.502;10.252;2023-04-12T15:29:22;99471.41;;;10.40;100.00
16120;BME280;12670;53.502;10.252;2023-04-12T15:32:25;99468.75;;;10.40;100.00
16120;BME280;12670;53.502;10.252;2023-04-12T15:35:30;99455.50;;;10.26;100.00
16120;BME280;12670;53.502;10.252;2023-04-12T15:38:39;99450.00;;;10.29;100.00
16120;BME280;12670;53.502;10.252;2023-04-12T15:41:42;99448.44;;;10.11;100.00
16120;BME280;12670;53.502;10.252;2023-04-12T15:44:45;99457.00;;;10.30;100.00
16120;BME280;12670;53.502;10.252;2023-04-12T15:47:47;99450.00;;;10.29;100.00
16120;BME280;12670;53.502;10.252;2023-04-12T15:50:55;99461.34;;;10.31;100.00
16120;BME280;12670;53.502;10.252;2023-04-12T15:53:57;99448.47;;;10.25;100.00
16120;BME280;12670;53.502;10.252;2023-04-12T15:57:01;99454.28;;;10.32;100.00
16120;BME280;12670;53.502;10.252;2023-04-12T16:00:10;99446.09;;;10.21;100.00
16120;BME280;12670;53.502;10.252;2023-04-12T16:03:21;99448.59;;;9.94;100.00